createdAt,value
2022-08-25T00:05:57.416Z,26.27
2022-08-25T00:16:00.005Z,26.52
2022-08-25T00:26:02.273Z,26.28
2022-08-25T00:36:04.665Z,26.33
2022-08-25T00:46:08.440Z,26.02
2022-08-25T00:56:13.180Z,25.92
2022-08-25T01:06:15.436Z,25.83
2022-08-25T01:16:17.878Z,25.65
2022-08-25T01:26:30.256Z,25.04
2022-08-25T01:36:34.058Z,24.71
2022-08-25T01:46:36.335Z,24.71
2022-08-25T01:56:38.753Z,24.85
2022-08-25T02:06:41.135Z,24.82
2022-08-25T02:16:48.454Z,24.15
2022-08-25T02:26:50.995Z,24.41
2022-08-25T02:36:53.141Z,24.37
2022-08-25T02:46:54.979Z,24.52
2022-08-25T02:56:56.988Z,24.48
2022-08-25T03:06:59.475Z,23.92
2022-08-25T03:17:01.295Z,23.86
2022-08-25T03:27:03.583Z,23.66
2022-08-25T03:37:07.289Z,23.71
2022-08-25T03:47:09.397Z,23.59
2022-08-25T03:57:12.355Z,23.26
2022-08-25T04:07:14.156Z,23.10
2022-08-25T04:17:16.596Z,23.17
2022-08-25T04:27:19.059Z,23.13
2022-08-25T04:37:20.808Z,22.96
2022-08-25T04:47:22.853Z,23.07
2022-08-25T04:57:24.720Z,22.99
2022-08-25T05:07:26.547Z,23.01
2022-08-25T05:17:28.286Z,22.68
2022-08-25T05:27:30.268Z,23.11
2022-08-25T05:37:32.230Z,22.88
2022-08-25T05:47:34.588Z,23.55
2022-08-25T05:57:36.836Z,23.55
2022-08-25T06:07:38.808Z,24.17
2022-08-25T06:17:42.947Z,24.24
2022-08-25T06:27:45.575Z,24.34
2022-08-25T06:37:47.289Z,24.93
2022-08-25T06:47:49.410Z,25.06
2022-08-25T06:57:55.094Z,25.81
2022-08-25T07:08:03.400Z,25.92
2022-08-25T07:18:08.871Z,26.18
2022-08-25T07:28:11.151Z,26.62
2022-08-25T07:38:16.668Z,26.75
2022-08-25T07:48:23.026Z,26.96
2022-08-25T07:58:25.020Z,26.93
2022-08-25T08:08:27.841Z,27.26
2022-08-25T08:18:29.719Z,27.57
2022-08-25T08:28:31.798Z,28.07
2022-08-25T08:38:36.393Z,28.37
2022-08-25T08:48:44.078Z,28.51
2022-08-25T08:59:08.057Z,28.93
2022-08-25T09:09:15.005Z,29.19
2022-08-25T09:19:24.658Z,29.39
2022-08-25T09:29:47.637Z,29.32
2022-08-25T09:39:50.307Z,29.74
2022-08-25T09:50:04.599Z,30.07
2022-08-25T10:00:18.044Z,30.35
2022-08-25T10:10:32.430Z,30.55
2022-08-25T10:20:46.405Z,30.47
2022-08-25T10:31:09.669Z,30.90
2022-08-25T10:41:49.341Z,31.07
2022-08-25T10:52:00.617Z,31.11
2022-08-25T11:02:50.590Z,31.52
2022-08-25T11:13:04.284Z,31.90
2022-08-25T11:23:20.238Z,32.17
2022-08-25T11:33:24.449Z,32.29
2022-08-25T11:43:50.861Z,32.35
2022-08-25T11:54:14.312Z,32.86
2022-08-25T12:04:44.774Z,32.44
2022-08-25T12:14:55.142Z,32.32
2022-08-25T12:25:23.188Z,32.97
2022-08-25T12:35:37.996Z,33.08
2022-08-25T12:45:44.921Z,33.48
2022-08-25T12:56:37.594Z,33.35
2022-08-25T13:06:55.057Z,33.21
2022-08-25T13:16:59.673Z,33.30
2022-08-25T13:27:09.110Z,33.37
2022-08-25T13:37:29.799Z,33.36
2022-08-25T13:47:43.483Z,33.31
2022-08-25T13:57:57.719Z,33.33
2022-08-25T14:08:15.823Z,33.22
2022-08-25T14:18:30.550Z,33.10
2022-08-25T14:28:33.452Z,33.10
2022-08-25T14:49:03.955Z,33.09
2022-08-25T14:59:05.925Z,33.16
2022-08-25T15:09:16.091Z,33.09
2022-08-25T15:19:22.055Z,33.09
2022-08-25T15:29:29.149Z,33.01
2022-08-25T15:39:30.874Z,33.07
2022-08-25T15:49:33.534Z,32.98
2022-08-25T15:59:35.309Z,32.85
2022-08-25T16:09:37.226Z,32.76
2022-08-25T16:19:39.278Z,32.68
2022-08-25T16:29:44.280Z,32.61
2022-08-25T16:39:46.389Z,32.71
2022-08-25T16:49:48.786Z,32.65
2022-08-25T16:59:51.008Z,32.61
2022-08-25T17:09:53.356Z,32.38
2022-08-25T17:19:55.362Z,32.40
2022-08-25T17:29:57.247Z,32.27
2022-08-25T17:40:03.003Z,32.14
2022-08-25T17:50:05.803Z,32.06
2022-08-25T18:00:12.124Z,31.98
2022-08-25T18:10:16.704Z,31.84
2022-08-25T18:20:18.978Z,31.81
2022-08-25T18:30:26.201Z,31.59
2022-08-25T18:40:30.628Z,31.37
2022-08-25T18:50:41.185Z,31.27
2022-08-25T19:00:45.102Z,31.17
2022-08-25T19:10:53.431Z,30.98
2022-08-25T19:20:55.410Z,30.88
2022-08-25T19:30:57.804Z,30.87
2022-08-25T19:41:02.774Z,30.66
2022-08-25T19:51:11.666Z,30.34
2022-08-25T20:01:13.876Z,30.35
2022-08-25T20:11:20.087Z,30.00
2022-08-25T20:21:22.175Z,30.01
2022-08-25T20:31:24.353Z,29.93
2022-08-25T20:41:26.495Z,29.87
2022-08-25T20:51:31.435Z,29.68
2022-08-25T21:01:40.551Z,29.22
2022-08-25T21:11:42.788Z,28.22
2022-08-25T21:21:47.169Z,28.34
2022-08-25T21:31:55.008Z,28.36
2022-08-25T21:42:00.024Z,27.99
2022-08-25T21:52:03.276Z,27.57
2022-08-25T22:02:11.563Z,27.36
2022-08-25T22:12:13.467Z,27.66
2022-08-25T22:22:22.397Z,27.73
2022-08-25T22:32:24.457Z,27.22
2022-08-25T22:42:27.491Z,27.60
2022-08-25T22:52:33.656Z,27.40
2022-08-25T23:02:36.299Z,26.99
2022-08-25T23:12:39.940Z,26.77
2022-08-25T23:22:45.839Z,26.63
2022-08-25T23:32:52.122Z,25.82
2022-08-25T23:42:56.174Z,26.01
2022-08-25T23:52:59.123Z,26.45
